sensor_id;sensor_type;location;lat;lon;timestamp;P1;durP1;ratioP1;P2;durP2;ratioP2
75169;SDS011;63749;49.186;9.222;2024-01-16T00:02:10;9.27;;;4.32;;
75169;SDS011;63749;49.186;9.222;2024-01-16T00:04:38;11.20;;;4.70;;
75169;SDS011;63749;49.186;9.222;2024-01-16T00:07:05;10.93;;;4.88;;
75169;SDS011;63749;49.186;9.222;2024-01-16T00:09:34;10.87;;;4.57;;
75169;SDS011;63749;49.186;9.222;2024-01-16T00:12:00;8.43;;;4.05;;
75169;SDS011;63749;49.186;9.222;2024-01-16T00:14:25;10.50;;;4.40;;
75169;SDS011;63749;49.186;9.222;2024-01-16T00:16:51;10.23;;;4.23;;
75169;SDS011;63749;49.186;9.222;2024-01-16T00:19:16;9.90;;;4.00;;
75169;SDS011;63749;49.186;9.222;2024-01-16T00:21:42;11.85;;;4.97;;
75169;SDS011;63749;49.186;9.222;2024-01-16T00:24:10;12.53;;;4.80;;
75169;SDS011;63749;49.186;9.222;2024-01-16T00:26:35;10.30;;;4.33;;
75169;SDS011;63749;49.186;9.222;2024-01-16T00:29:01;10.43;;;4.43;;
75169;SDS011;63749;49.186;9.222;2024-01-16T00:31:26;10.50;;;4.60;;
75169;SDS011;63749;49.186;9.222;2024-01-16T00:33:51;10.37;;;4.60;;
75169;SDS011;63749;49.186;9.222;2024-01-16T00:36:17;12.50;;;5.13;;
75169;SDS011;63749;49.186;9.222;2024-01-16T00:38:42;10.17;;;4.90;;
75169;SDS011;63749;49.186;9.222;2024-01-16T00:41:08;10.67;;;4.67;;
75169;SDS011;63749;49.186;9.222;2024-01-16T00:43:33;9.88;;;4.15;;
75169;SDS011;63749;49.186;9.222;2024-01-16T00:46:00;10.17;;;4.80;;
75169;SDS011;63749;49.186;9.222;2024-01-16T00:48:26;12.15;;;4.55;;
75169;SDS011;63749;49.186;9.222;2024-01-16T00:50:51;12.33;;;4.73;;
75169;SDS011;63749;49.186;9.222;2024-01-16T00:53:16;12.80;;;4.93;;
75169;SDS011;63749;49.186;9.222;2024-01-16T00:55:42;10.73;;;4.80;;
75169;SDS011;63749;49.186;9.222;2024-01-16T00:58:07;10.57;;;4.73;;
75169;SDS011;63749;49.186;9.222;2024-01-16T01:00:33;11.87;;;4.73;;
75169;SDS011;63749;49.186;9.222;2024-01-16T01:03:00;10.95;;;5.18;;
75169;SDS011;63749;49.186;9.222;2024-01-16T01:05:25;13.95;;;4.90;;
75169;SDS011;63749;49.186;9.222;2024-01-16T01:07:56;13.63;;;5.05;;
75169;SDS011;63749;49.186;9.222;2024-01-16T01:10:22;11.95;;;4.80;;
75169;SDS011;63749;49.186;9.222;2024-01-16T01:12:48;10.27;;;4.80;;
75169;SDS011;63749;49.186;9.222;2024-01-16T01:15:14;12.37;;;5.07;;
75169;SDS011;63749;49.186;9.222;2024-01-16T01:17:40;12.20;;;5.30;;
75169;SDS011;63749;49.186;9.222;2024-01-16T01:20:06;11.63;;;5.00;;
75169;SDS011;63749;49.186;9.222;2024-01-16T01:22:33;11.70;;;5.10;;
75169;SDS011;63749;49.186;9.222;2024-01-16T01:24:58;11.30;;;4.67;;
75169;SDS011;63749;49.186;9.222;2024-01-16T01:27:23;12.77;;;4.32;;
75169;SDS011;63749;49.186;9.222;2024-01-16T01:29:49;10.40;;;4.83;;
75169;SDS011;63749;49.186;9.222;2024-01-16T01:32:14;17.10;;;5.00;;
75169;SDS011;63749;49.186;9.222;2024-01-16T01:34:43;14.17;;;5.50;;
75169;SDS011;63749;49.186;9.222;2024-01-16T01:37:08;11.15;;;4.80;;
75169;SDS011;63749;49.186;9.222;2024-01-16T01:39:34;15.75;;;5.50;;
75169;SDS011;63749;49.186;9.222;2024-01-16T01:42:00;14.77;;;5.40;;
75169;SDS011;63749;49.186;9.222;2024-01-16T01:44:25;11.67;;;5.20;;
75169;SDS011;63749;49.186;9.222;2024-01-16T01:46:51;13.40;;;5.00;;
75169;SDS011;63749;49.186;9.222;2024-01-16T01:49:19;12.10;;;5.20;;
75169;SDS011;63749;49.186;9.222;2024-01-16T01:51:45;15.20;;;4.93;;
75169;SDS011;63749;49.186;9.222;2024-01-16T01:54:11;16.00;;;5.22;;
75169;SDS011;63749;49.186;9.222;2024-01-16T01:56:38;12.60;;;5.15;;
75169;SDS011;63749;49.186;9.222;2024-01-16T01:59:04;12.98;;;5.20;;
75169;SDS011;63749;49.186;9.222;2024-01-16T02:01:30;15.93;;;5.73;;
75169;SDS011;63749;49.186;9.222;2024-01-16T02:03:58;13.45;;;4.93;;
75169;SDS011;63749;49.186;9.222;2024-01-16T02:06:24;12.25;;;5.10;;
75169;SDS011;63749;49.186;9.222;2024-01-16T02:08:50;12.50;;;5.20;;
75169;SDS011;63749;49.186;9.222;2024-01-16T02:11:16;12.18;;;5.30;;
75169;SDS011;63749;49.186;9.222;2024-01-16T02:13:41;12.23;;;4.93;;
75169;SDS011;63749;49.186;9.222;2024-01-16T02:16:17;13.20;;;5.20;;
75169;SDS011;63749;49.186;9.222;2024-01-16T02:18:43;9.83;;;4.63;;
75169;SDS011;63749;49.186;9.222;2024-01-16T02:21:09;12.67;;;5.13;;
75169;SDS011;63749;49.186;9.222;2024-01-16T02:23:34;12.77;;;4.75;;
75169;SDS011;63749;49.186;9.222;2024-01-16T02:26:00;11.60;;;4.77;;
75169;SDS011;63749;49.186;9.222;2024-01-16T02:28:26;11.32;;;4.38;;
75169;SDS011;63749;49.186;9.222;2024-01-16T02:30:51;13.13;;;5.30;;
75169;SDS011;63749;49.186;9.222;2024-01-16T02:33:17;12.17;;;5.00;;
75169;SDS011;63749;49.186;9.222;2024-01-16T02:35:43;13.45;;;5.15;;
75169;SDS011;63749;49.186;9.222;2024-01-16T02:38:08;10.37;;;4.67;;
75169;SDS011;63749;49.186;9.222;2024-01-16T02:40:34;13.77;;;5.03;;
75169;SDS011;63749;49.186;9.222;2024-01-16T02:42:59;10.52;;;4.65;;
75169;SDS011;63749;49.186;9.222;2024-01-16T02:45:24;11.80;;;4.93;;
75169;SDS011;63749;49.186;9.222;2024-01-16T02:47:50;12.50;;;4.80;;
75169;SDS011;63749;49.186;9.222;2024-01-16T02:50:15;10.73;;;5.20;;
75169;SDS011;63749;49.186;9.222;2024-01-16T02:52:41;11.13;;;5.17;;
75169;SDS011;63749;49.186;9.222;2024-01-16T02:55:06;14.43;;;5.82;;
75169;SDS011;63749;49.186;9.222;2024-01-16T02:57:32;13.57;;;5.33;;
75169;SDS011;63749;49.186;9.222;2024-01-16T02:59:57;12.27;;;5.07;;
75169;SDS011;63749;49.186;9.222;2024-01-16T03:02:24;12.27;;;5.07;;
75169;SDS011;63749;49.186;9.222;2024-01-16T03:04:50;12.97;;;5.23;;
75169;SDS011;63749;49.186;9.222;2024-01-16T03:07:15;12.90;;;4.50;;
75169;SDS011;63749;49.186;9.222;2024-01-16T03:09:41;11.97;;;5.20;;
75169;SDS011;63749;49.186;9.222;2024-01-16T03:12:06;10.40;;;4.77;;
75169;SDS011;63749;49.186;9.222;2024-01-16T03:14:32;15.55;;;5.28;;
75169;SDS011;63749;49.186;9.222;2024-01-16T03:17:01;11.53;;;4.80;;
75169;SDS011;63749;49.186;9.222;2024-01-16T03:19:27;11.93;;;4.97;;
75169;SDS011;63749;49.186;9.222;2024-01-16T03:21:52;12.53;;;5.40;;
75169;SDS011;63749;49.186;9.222;2024-01-16T03:24:18;12.77;;;5.13;;
75169;SDS011;63749;49.186;9.222;2024-01-16T03:26:45;11.65;;;5.25;;
75169;SDS011;63749;49.186;9.222;2024-01-16T03:29:10;14.13;;;5.03;;
75169;SDS011;63749;49.186;9.222;2024-01-16T03:31:37;11.30;;;4.72;;
75169;SDS011;63749;49.186;9.222;2024-01-16T03:34:02;11.90;;;5.00;;
75169;SDS011;63749;49.186;9.222;2024-01-16T03:36:28;11.33;;;4.47;;
75169;SDS011;63749;49.186;9.222;2024-01-16T03:38:53;11.57;;;4.80;;
75169;SDS011;63749;49.186;9.222;2024-01-16T03:41:19;9.73;;;4.20;;
75169;SDS011;63749;49.186;9.222;2024-01-16T03:43:44;11.07;;;4.47;;
75169;SDS011;63749;49.186;9.222;2024-01-16T03:46:13;12.55;;;4.40;;
75169;SDS011;63749;49.186;9.222;2024-01-16T03:48:39;11.17;;;4.53;;
75169;SDS011;63749;49.186;9.222;2024-01-16T03:51:05;9.85;;;4.65;;
75169;SDS011;63749;49.186;9.222;2024-01-16T03:53:31;15.17;;;4.53;;
75169;SDS011;63749;49.186;9.222;2024-01-16T03:55:57;10.85;;;4.88;;
75169;SDS011;63749;49.186;9.222;2024-01-16T03:58:24;13.43;;;4.43;;
75169;SDS011;63749;49.186;9.222;2024-01-16T04:00:49;11.27;;;4.80;;
75169;SDS011;63749;49.186;9.222;2024-01-16T04:03:16;11.73;;;4.63;;
75169;SDS011;63749;49.186;9.222;2024-01-16T04:05:42;10.45;;;4.53;;
75169;SDS011;63749;49.186;9.222;2024-01-16T04:08:07;11.07;;;4.67;;
75169;SDS011;63749;49.186;9.222;2024-01-16T04:10:32;13.05;;;5.10;;
75169;SDS011;63749;49.186;9.222;2024-01-16T04:13:01;10.20;;;4.33;;
75169;SDS011;63749;49.186;9.222;2024-01-16T04:15:27;10.73;;;5.07;;
75169;SDS011;63749;49.186;9.222;2024-01-16T04:17:53;10.40;;;4.47;;
75169;SDS011;63749;49.186;9.222;2024-01-16T04:20:19;10.32;;;4.50;;
75169;SDS011;63749;49.186;9.222;2024-01-16T04:22:45;10.10;;;4.70;;
75169;SDS011;63749;49.186;9.222;2024-01-16T04:25:10;14.02;;;4.75;;
75169;SDS011;63749;49.186;9.222;2024-01-16T04:27:36;12.57;;;5.07;;
75169;SDS011;63749;49.186;9.222;2024-01-16T04:30:01;11.63;;;4.83;;
75169;SDS011;63749;49.186;9.222;2024-01-16T04:32:26;10.67;;;5.07;;
75169;SDS011;63749;49.186;9.222;2024-01-16T04:34:52;12.90;;;4.90;;
75169;SDS011;63749;49.186;9.222;2024-01-16T04:37:17;13.15;;;4.10;;
75169;SDS011;63749;49.186;9.222;2024-01-16T04:39:43;9.80;;;4.23;;
75169;SDS011;63749;49.186;9.222;2024-01-16T04:42:08;11.83;;;4.70;;
75169;SDS011;63749;49.186;9.222;2024-01-16T04:44:34;10.52;;;4.43;;
75169;SDS011;63749;49.186;9.222;2024-01-16T04:46:59;10.63;;;4.37;;
75169;SDS011;63749;49.186;9.222;2024-01-16T04:49:25;12.90;;;4.50;;
75169;SDS011;63749;49.186;9.222;2024-01-16T04:51:50;10.23;;;4.30;;
75169;SDS011;63749;49.186;9.222;2024-01-16T04:54:15;12.37;;;4.57;;
75169;SDS011;63749;49.186;9.222;2024-01-16T04:56:41;13.03;;;4.60;;
75169;SDS011;63749;49.186;9.222;2024-01-16T04:59:06;10.87;;;4.70;;
75169;SDS011;63749;49.186;9.222;2024-01-16T05:01:31;11.97;;;4.10;;
75169;SDS011;63749;49.186;9.222;2024-01-16T05:03:57;13.07;;;4.80;;
75169;SDS011;63749;49.186;9.222;2024-01-16T05:06:22;10.83;;;4.70;;
75169;SDS011;63749;49.186;9.222;2024-01-16T05:08:47;11.37;;;4.37;;
75169;SDS011;63749;49.186;9.222;2024-01-16T05:11:13;12.48;;;4.82;;
75169;SDS011;63749;49.186;9.222;2024-01-16T05:13:39;10.60;;;4.27;;
75169;SDS011;63749;49.186;9.222;2024-01-16T05:16:05;9.93;;;4.43;;
75169;SDS011;63749;49.186;9.222;2024-01-16T05:18:30;12.63;;;4.32;;
75169;SDS011;63749;49.186;9.222;2024-01-16T05:20:57;13.45;;;4.80;;
75169;SDS011;63749;49.186;9.222;2024-01-16T05:23:23;9.13;;;4.07;;
75169;SDS011;63749;49.186;9.222;2024-01-16T05:25:48;11.23;;;4.53;;
75169;SDS011;63749;49.186;9.222;2024-01-16T05:28:14;11.05;;;4.22;;
75169;SDS011;63749;49.186;9.222;2024-01-16T05:30:40;12.13;;;4.40;;
75169;SDS011;63749;49.186;9.222;2024-01-16T05:33:05;12.30;;;4.10;;
75169;SDS011;63749;49.186;9.222;2024-01-16T05:35:30;11.53;;;4.37;;
75169;SDS011;63749;49.186;9.222;2024-01-16T05:37:56;10.13;;;4.27;;
75169;SDS011;63749;49.186;9.222;2024-01-16T05:40:22;9.93;;;3.93;;
75169;SDS011;63749;49.186;9.222;2024-01-16T05:42:50;9.43;;;4.03;;
75169;SDS011;63749;49.186;9.222;2024-01-16T05:45:16;10.82;;;4.57;;
75169;SDS011;63749;49.186;9.222;2024-01-16T05:47:41;12.47;;;4.30;;
75169;SDS011;63749;49.186;9.222;2024-01-16T05:50:07;10.57;;;4.57;;
75169;SDS011;63749;49.186;9.222;2024-01-16T05:52:33;10.57;;;4.40;;
75169;SDS011;63749;49.186;9.222;2024-01-16T05:54:59;10.23;;;3.90;;
75169;SDS011;63749;49.186;9.222;2024-01-16T05:57:25;12.23;;;4.63;;
75169;SDS011;63749;49.186;9.222;2024-01-16T05:59:51;13.43;;;4.28;;
75169;SDS011;63749;49.186;9.222;2024-01-16T06:02:16;12.38;;;4.53;;
75169;SDS011;63749;49.186;9.222;2024-01-16T06:04:42;15.13;;;6.10;;
75169;SDS011;63749;49.186;9.222;2024-01-16T06:07:07;12.70;;;5.23;;
75169;SDS011;63749;49.186;9.222;2024-01-16T06:09:33;10.00;;;4.57;;
75169;SDS011;63749;49.186;9.222;2024-01-16T06:11:58;13.73;;;4.93;;
75169;SDS011;63749;49.186;9.222;2024-01-16T06:14:24;11.30;;;4.87;;
75169;SDS011;63749;49.186;9.222;2024-01-16T06:16:50;11.20;;;5.00;;
75169;SDS011;63749;49.186;9.222;2024-01-16T06:19:16;14.40;;;5.38;;
75169;SDS011;63749;49.186;9.222;2024-01-16T06:21:42;15.93;;;5.20;;
75169;SDS011;63749;49.186;9.222;2024-01-16T06:24:07;11.33;;;4.90;;
75169;SDS011;63749;49.186;9.222;2024-01-16T06:26:33;11.48;;;5.10;;
75169;SDS011;63749;49.186;9.222;2024-01-16T06:28:58;10.30;;;4.83;;
75169;SDS011;63749;49.186;9.222;2024-01-16T06:31:24;16.43;;;5.43;;
75169;SDS011;63749;49.186;9.222;2024-01-16T06:33:51;15.63;;;5.70;;
75169;SDS011;63749;49.186;9.222;2024-01-16T06:36:16;16.55;;;6.63;;
75169;SDS011;63749;49.186;9.222;2024-01-16T06:38:42;17.67;;;6.50;;
75169;SDS011;63749;49.186;9.222;2024-01-16T06:41:07;16.83;;;6.33;;
75169;SDS011;63749;49.186;9.222;2024-01-16T06:43:33;14.77;;;5.90;;
75169;SDS011;63749;49.186;9.222;2024-01-16T06:45:58;15.15;;;6.28;;
75169;SDS011;63749;49.186;9.222;2024-01-16T06:48:24;17.80;;;6.50;;
75169;SDS011;63749;49.186;9.222;2024-01-16T06:50:49;19.27;;;7.20;;
75169;SDS011;63749;49.186;9.222;2024-01-16T06:53:15;14.40;;;5.75;;
75169;SDS011;63749;49.186;9.222;2024-01-16T06:55:40;15.40;;;6.17;;
75169;SDS011;63749;49.186;9.222;2024-01-16T06:58:06;13.50;;;5.37;;
75169;SDS011;63749;49.186;9.222;2024-01-16T07:00:31;12.37;;;4.97;;
75169;SDS011;63749;49.186;9.222;2024-01-16T07:02:56;10.27;;;4.13;;
75169;SDS011;63749;49.186;9.222;2024-01-16T07:05:29;14.20;;;5.80;;
75169;SDS011;63749;49.186;9.222;2024-01-16T07:07:54;15.18;;;5.30;;
75169;SDS011;63749;49.186;9.222;2024-01-16T07:10:20;12.03;;;5.00;;
75169;SDS011;63749;49.186;9.222;2024-01-16T07:12:47;14.52;;;5.53;;
75169;SDS011;63749;49.186;9.222;2024-01-16T07:15:14;21.92;;;8.60;;
75169;SDS011;63749;49.186;9.222;2024-01-16T07:17:40;19.00;;;8.43;;
75169;SDS011;63749;49.186;9.222;2024-01-16T07:20:05;18.48;;;8.68;;
75169;SDS011;63749;49.186;9.222;2024-01-16T07:22:31;23.53;;;6.97;;
75169;SDS011;63749;49.186;9.222;2024-01-16T07:24:56;13.70;;;5.90;;
75169;SDS011;63749;49.186;9.222;2024-01-16T07:27:21;14.83;;;7.03;;
75169;SDS011;63749;49.186;9.222;2024-01-16T07:29:47;14.57;;;6.90;;
75169;SDS011;63749;49.186;9.222;2024-01-16T07:32:12;15.63;;;5.93;;
75169;SDS011;63749;49.186;9.222;2024-01-16T07:34:37;16.53;;;6.30;;
75169;SDS011;63749;49.186;9.222;2024-01-16T07:37:03;13.97;;;6.07;;
75169;SDS011;63749;49.186;9.222;2024-01-16T07:39:28;16.40;;;6.87;;
75169;SDS011;63749;49.186;9.222;2024-01-16T07:41:53;18.93;;;8.93;;
75169;SDS011;63749;49.186;9.222;2024-01-16T07:44:19;20.48;;;9.43;;
75169;SDS011;63749;49.186;9.222;2024-01-16T07:46:44;21.93;;;9.60;;
75169;SDS011;63749;49.186;9.222;2024-01-16T07:49:10;21.87;;;10.00;;
75169;SDS011;63749;49.186;9.222;2024-01-16T07:51:35;23.83;;;10.00;;
75169;SDS011;63749;49.186;9.222;2024-01-16T07:54:04;22.37;;;9.73;;
75169;SDS011;63749;49.186;9.222;2024-01-16T07:56:31;23.15;;;10.30;;
75169;SDS011;63749;49.186;9.222;2024-01-16T07:58:57;22.87;;;10.50;;
75169;SDS011;63749;49.186;9.222;2024-01-16T08:01:22;23.30;;;10.00;;
75169;SDS011;63749;49.186;9.222;2024-01-16T08:03:47;22.20;;;9.07;;
75169;SDS011;63749;49.186;9.222;2024-01-16T08:06:13;18.97;;;8.00;;
75169;SDS011;63749;49.186;9.222;2024-01-16T08:08:38;17.95;;;7.38;;
75169;SDS011;63749;49.186;9.222;2024-01-16T08:11:04;14.53;;;6.60;;
75169;SDS011;63749;49.186;9.222;2024-01-16T08:13:29;16.83;;;6.00;;
75169;SDS011;63749;49.186;9.222;2024-01-16T08:15:55;17.63;;;6.00;;
75169;SDS011;63749;49.186;9.222;2024-01-16T08:18:20;15.45;;;5.90;;
75169;SDS011;63749;49.186;9.222;2024-01-16T08:20:45;11.97;;;5.77;;
75169;SDS011;63749;49.186;9.222;2024-01-16T08:23:10;11.03;;;5.47;;
75169;SDS011;63749;49.186;9.222;2024-01-16T08:25:36;13.80;;;6.40;;
75169;SDS011;63749;49.186;9.222;2024-01-16T08:28:01;13.83;;;6.53;;
75169;SDS011;63749;49.186;9.222;2024-01-16T08:30:27;16.90;;;7.10;;
75169;SDS011;63749;49.186;9.222;2024-01-16T08:32:52;18.23;;;7.70;;
75169;SDS011;63749;49.186;9.222;2024-01-16T08:35:17;20.40;;;9.60;;
75169;SDS011;63749;49.186;9.222;2024-01-16T08:37:42;20.02;;;8.90;;
75169;SDS011;63749;49.186;9.222;2024-01-16T08:40:08;24.17;;;10.40;;
75169;SDS011;63749;49.186;9.222;2024-01-16T08:42:34;22.53;;;10.63;;
75169;SDS011;63749;49.186;9.222;2024-01-16T08:44:59;25.93;;;11.17;;
75169;SDS011;63749;49.186;9.222;2024-01-16T08:47:24;22.90;;;10.40;;
75169;SDS011;63749;49.186;9.222;2024-01-16T08:49:50;21.67;;;10.38;;
75169;SDS011;63749;49.186;9.222;2024-01-16T08:52:15;20.70;;;9.93;;
75169;SDS011;63749;49.186;9.222;2024-01-16T08:54:40;18.23;;;8.93;;
75169;SDS011;63749;49.186;9.222;2024-01-16T08:57:06;17.40;;;7.53;;
75169;SDS011;63749;49.186;9.222;2024-01-16T08:59:31;17.03;;;7.90;;
75169;SDS011;63749;49.186;9.222;2024-01-16T09:01:57;20.13;;;8.32;;
75169;SDS011;63749;49.186;9.222;2024-01-16T09:04:22;12.23;;;5.83;;
75169;SDS011;63749;49.186;9.222;2024-01-16T09:06:48;15.50;;;6.60;;
75169;SDS011;63749;49.186;9.222;2024-01-16T09:09:13;14.50;;;5.90;;
75169;SDS011;63749;49.186;9.222;2024-01-16T09:11:40;14.70;;;5.90;;
75169;SDS011;63749;49.186;9.222;2024-01-16T09:14:06;16.27;;;6.85;;
75169;SDS011;63749;49.186;9.222;2024-01-16T09:16:32;14.60;;;7.10;;
75169;SDS011;63749;49.186;9.222;2024-01-16T09:18:57;16.13;;;8.27;;
75169;SDS011;63749;49.186;9.222;2024-01-16T09:21:22;16.27;;;8.50;;
75169;SDS011;63749;49.186;9.222;2024-01-16T09:23:48;16.33;;;7.55;;
75169;SDS011;63749;49.186;9.222;2024-01-16T09:26:13;12.27;;;5.93;;
75169;SDS011;63749;49.186;9.222;2024-01-16T09:28:39;14.87;;;6.33;;
75169;SDS011;63749;49.186;9.222;2024-01-16T09:31:05;13.53;;;6.10;;
75169;SDS011;63749;49.186;9.222;2024-01-16T09:33:31;9.40;;;4.60;;
75169;SDS011;63749;49.186;9.222;2024-01-16T09:35:56;15.37;;;6.50;;
75169;SDS011;63749;49.186;9.222;2024-01-16T09:38:22;12.43;;;6.05;;
75169;SDS011;63749;49.186;9.222;2024-01-16T09:40:47;12.07;;;5.80;;
75169;SDS011;63749;49.186;9.222;2024-01-16T09:43:12;11.67;;;5.87;;
75169;SDS011;63749;49.186;9.222;2024-01-16T09:45:39;13.52;;;6.70;;
75169;SDS011;63749;49.186;9.222;2024-01-16T09:48:05;12.23;;;5.50;;
75169;SDS011;63749;49.186;9.222;2024-01-16T09:50:32;13.10;;;5.35;;
75169;SDS011;63749;49.186;9.222;2024-01-16T09:52:58;11.27;;;5.50;;
75169;SDS011;63749;49.186;9.222;2024-01-16T09:55:23;13.63;;;5.60;;
75169;SDS011;63749;49.186;9.222;2024-01-16T09:57:50;10.40;;;4.93;;
75169;SDS011;63749;49.186;9.222;2024-01-16T10:00:18;9.00;;;4.60;;
75169;SDS011;63749;49.186;9.222;2024-01-16T10:02:44;10.23;;;4.25;;
75169;SDS011;63749;49.186;9.222;2024-01-16T10:05:10;12.75;;;5.10;;
75169;SDS011;63749;49.186;9.222;2024-01-16T10:07:40;11.30;;;5.27;;
75169;SDS011;63749;49.186;9.222;2024-01-16T10:10:10;11.65;;;4.90;;
75169;SDS011;63749;49.186;9.222;2024-01-16T10:12:36;10.15;;;4.60;;
75169;SDS011;63749;49.186;9.222;2024-01-16T10:15:02;10.20;;;4.90;;
75169;SDS011;63749;49.186;9.222;2024-01-16T10:17:40;9.27;;;4.87;;
75169;SDS011;63749;49.186;9.222;2024-01-16T10:20:07;13.57;;;5.05;;
75169;SDS011;63749;49.186;9.222;2024-01-16T10:22:38;10.90;;;5.07;;
75169;SDS011;63749;49.186;9.222;2024-01-16T10:25:05;9.27;;;4.90;;
75169;SDS011;63749;49.186;9.222;2024-01-16T10:27:33;14.82;;;5.28;;
75169;SDS011;63749;49.186;9.222;2024-01-16T10:29:59;11.20;;;4.60;;
75169;SDS011;63749;49.186;9.222;2024-01-16T10:32:27;8.80;;;4.43;;
75169;SDS011;63749;49.186;9.222;2024-01-16T10:35:03;10.43;;;4.80;;
75169;SDS011;63749;49.186;9.222;2024-01-16T10:37:30;10.77;;;4.50;;
75169;SDS011;63749;49.186;9.222;2024-01-16T10:40:05;12.05;;;4.80;;
75169;SDS011;63749;49.186;9.222;2024-01-16T10:42:32;11.55;;;4.82;;
75169;SDS011;63749;49.186;9.222;2024-01-16T10:44:57;11.77;;;5.00;;
75169;SDS011;63749;49.186;9.222;2024-01-16T10:47:23;15.60;;;5.00;;
75169;SDS011;63749;49.186;9.222;2024-01-16T10:49:48;11.37;;;4.53;;
75169;SDS011;63749;49.186;9.222;2024-01-16T10:52:13;10.93;;;4.60;;
75169;SDS011;63749;49.186;9.222;2024-01-16T10:54:42;10.10;;;4.50;;
75169;SDS011;63749;49.186;9.222;2024-01-16T10:57:14;13.52;;;4.78;;
75169;SDS011;63749;49.186;9.222;2024-01-16T10:59:42;9.73;;;4.68;;
75169;SDS011;63749;49.186;9.222;2024-01-16T11:02:16;11.10;;;4.57;;
75169;SDS011;63749;49.186;9.222;2024-01-16T11:04:46;12.82;;;4.72;;
75169;SDS011;63749;49.186;9.222;2024-01-16T11:07:13;16.65;;;5.25;;
75169;SDS011;63749;49.186;9.222;2024-01-16T11:09:39;12.10;;;5.00;;
75169;SDS011;63749;49.186;9.222;2024-01-16T11:12:06;13.23;;;4.95;;
75169;SDS011;63749;49.186;9.222;2024-01-16T11:14:33;14.47;;;5.33;;
75169;SDS011;63749;49.186;9.222;2024-01-16T11:17:00;11.02;;;5.20;;
75169;SDS011;63749;49.186;9.222;2024-01-16T11:19:28;13.75;;;6.10;;
75169;SDS011;63749;49.186;9.222;2024-01-16T11:21:55;12.82;;;6.00;;
75169;SDS011;63749;49.186;9.222;2024-01-16T11:24:21;15.47;;;6.30;;
75169;SDS011;63749;49.186;9.222;2024-01-16T11:26:47;15.40;;;6.50;;
75169;SDS011;63749;49.186;9.222;2024-01-16T11:31:55;13.98;;;5.70;;
75169;SDS011;63749;49.186;9.222;2024-01-16T11:34:52;11.77;;;5.70;;
75169;SDS011;63749;49.186;9.222;2024-01-16T11:37:25;15.05;;;5.63;;
75169;SDS011;63749;49.186;9.222;2024-01-16T11:40:19;10.27;;;4.93;;
75169;SDS011;63749;49.186;9.222;2024-01-16T11:42:46;10.27;;;4.88;;
75169;SDS011;63749;49.186;9.222;2024-01-16T11:50:37;11.00;;;5.45;;
75169;SDS011;63749;49.186;9.222;2024-01-16T11:53:03;13.87;;;5.50;;
75169;SDS011;63749;49.186;9.222;2024-01-16T11:55:32;9.57;;;5.05;;
75169;SDS011;63749;49.186;9.222;2024-01-16T12:00:51;14.33;;;5.10;;
75169;SDS011;63749;49.186;9.222;2024-01-16T12:03:18;14.25;;;5.50;;
75169;SDS011;63749;49.186;9.222;2024-01-16T12:05:55;14.43;;;5.80;;
75169;SDS011;63749;49.186;9.222;2024-01-16T12:08:22;15.65;;;5.32;;
75169;SDS011;63749;49.186;9.222;2024-01-16T12:10:47;13.50;;;5.38;;
75169;SDS011;63749;49.186;9.222;2024-01-16T12:13:13;11.67;;;5.70;;
75169;SDS011;63749;49.186;9.222;2024-01-16T12:15:39;16.65;;;5.85;;
75169;SDS011;63749;49.186;9.222;2024-01-16T12:18:04;20.27;;;7.67;;
75169;SDS011;63749;49.186;9.222;2024-01-16T12:20:30;14.13;;;5.83;;
75169;SDS011;63749;49.186;9.222;2024-01-16T12:22:58;13.25;;;5.80;;
75169;SDS011;63749;49.186;9.222;2024-01-16T12:25:24;12.38;;;5.95;;
75169;SDS011;63749;49.186;9.222;2024-01-16T12:27:55;10.95;;;5.78;;
75169;SDS011;63749;49.186;9.222;2024-01-16T12:30:29;13.20;;;6.03;;
75169;SDS011;63749;49.186;9.222;2024-01-16T12:33:04;15.83;;;6.40;;
75169;SDS011;63749;49.186;9.222;2024-01-16T12:35:37;14.73;;;6.03;;
75169;SDS011;63749;49.186;9.222;2024-01-16T12:38:06;15.63;;;6.35;;
75169;SDS011;63749;49.186;9.222;2024-01-16T12:40:40;14.40;;;6.43;;
75169;SDS011;63749;49.186;9.222;2024-01-16T12:43:07;13.52;;;6.43;;
75169;SDS011;63749;49.186;9.222;2024-01-16T12:45:34;16.20;;;6.27;;
75169;SDS011;63749;49.186;9.222;2024-01-16T12:48:00;15.20;;;5.40;;
75169;SDS011;63749;49.186;9.222;2024-01-16T12:50:28;11.02;;;5.40;;
75169;SDS011;63749;49.186;9.222;2024-01-16T12:53:08;11.63;;;5.30;;
75169;SDS011;63749;49.186;9.222;2024-01-16T12:55:36;11.63;;;5.70;;
75169;SDS011;63749;49.186;9.222;2024-01-16T13:01:04;13.05;;;5.63;;
75169;SDS011;63749;49.186;9.222;2024-01-16T13:03:51;14.13;;;5.95;;
75169;SDS011;63749;49.186;9.222;2024-01-16T13:06:18;13.73;;;6.38;;
75169;SDS011;63749;49.186;9.222;2024-01-16T13:08:47;13.57;;;6.30;;
75169;SDS011;63749;49.186;9.222;2024-01-16T13:11:13;12.17;;;5.80;;
75169;SDS011;63749;49.186;9.222;2024-01-16T13:13:46;13.70;;;5.80;;
75169;SDS011;63749;49.186;9.222;2024-01-16T13:16:13;14.48;;;6.53;;
75169;SDS011;63749;49.186;9.222;2024-01-16T13:18:39;12.85;;;6.43;;
75169;SDS011;63749;49.186;9.222;2024-01-16T13:21:04;14.97;;;6.57;;
75169;SDS011;63749;49.186;9.222;2024-01-16T13:23:30;16.98;;;6.40;;
75169;SDS011;63749;49.186;9.222;2024-01-16T13:25:56;14.97;;;6.50;;
75169;SDS011;63749;49.186;9.222;2024-01-16T13:28:25;15.90;;;6.68;;
75169;SDS011;63749;49.186;9.222;2024-01-16T13:30:52;12.35;;;5.88;;
75169;SDS011;63749;49.186;9.222;2024-01-16T13:33:17;17.13;;;6.90;;
75169;SDS011;63749;49.186;9.222;2024-01-16T13:35:44;15.50;;;7.40;;
75169;SDS011;63749;49.186;9.222;2024-01-16T13:38:13;16.58;;;7.13;;
75169;SDS011;63749;49.186;9.222;2024-01-16T13:40:44;17.63;;;8.07;;
75169;SDS011;63749;49.186;9.222;2024-01-16T13:43:09;14.17;;;7.73;;
75169;SDS011;63749;49.186;9.222;2024-01-16T13:45:36;15.18;;;7.82;;
75169;SDS011;63749;49.186;9.222;2024-01-16T13:48:02;15.32;;;8.20;;
75169;SDS011;63749;49.186;9.222;2024-01-16T13:50:28;14.93;;;7.33;;
75169;SDS011;63749;49.186;9.222;2024-01-16T13:52:54;20.38;;;9.38;;
75169;SDS011;63749;49.186;9.222;2024-01-16T13:55:20;18.77;;;8.40;;
75169;SDS011;63749;49.186;9.222;2024-01-16T13:57:46;17.60;;;7.82;;
75169;SDS011;63749;49.186;9.222;2024-01-16T14:00:12;15.80;;;8.20;;
75169;SDS011;63749;49.186;9.222;2024-01-16T14:02:40;16.42;;;7.88;;
75169;SDS011;63749;49.186;9.222;2024-01-16T14:05:13;15.40;;;8.45;;
75169;SDS011;63749;49.186;9.222;2024-01-16T14:07:47;14.73;;;8.15;;
75169;SDS011;63749;49.186;9.222;2024-01-16T14:10:15;18.20;;;9.30;;
75169;SDS011;63749;49.186;9.222;2024-01-16T14:12:42;16.43;;;8.47;;
75169;SDS011;63749;49.186;9.222;2024-01-16T14:15:08;18.98;;;10.60;;
75169;SDS011;63749;49.186;9.222;2024-01-16T14:17:44;17.50;;;9.13;;
75169;SDS011;63749;49.186;9.222;2024-01-16T14:20:16;13.65;;;8.13;;
75169;SDS011;63749;49.186;9.222;2024-01-16T14:22:45;16.05;;;7.40;;
75169;SDS011;63749;49.186;9.222;2024-01-16T14:25:11;14.90;;;7.30;;
75169;SDS011;63749;49.186;9.222;2024-01-16T14:27:40;13.85;;;8.02;;
75169;SDS011;63749;49.186;9.222;2024-01-16T14:30:10;14.37;;;8.17;;
75169;SDS011;63749;49.186;9.222;2024-01-16T14:32:38;16.20;;;8.48;;
75169;SDS011;63749;49.186;9.222;2024-01-16T14:35:05;12.98;;;7.60;;
75169;SDS011;63749;49.186;9.222;2024-01-16T14:37:32;13.45;;;7.30;;
75169;SDS011;63749;49.186;9.222;2024-01-16T14:39:59;13.30;;;7.85;;
75169;SDS011;63749;49.186;9.222;2024-01-16T14:42:43;18.37;;;9.30;;
75169;SDS011;63749;49.186;9.222;2024-01-16T14:45:10;13.00;;;7.65;;
75169;SDS011;63749;49.186;9.222;2024-01-16T14:47:36;12.90;;;7.53;;